sensor_id;sensor_type;location;lat;lon;timestamp;temperature;humidity
7494;DHT22;3788;49.902;8.590;2024-01-15T00:00:51;-1.60;99.90
7494;DHT22;3788;49.902;8.590;2024-01-15T00:03:18;-1.60;99.90
7494;DHT22;3788;49.902;8.590;2024-01-15T00:05:46;-1.60;99.90
7494;DHT22;3788;49.902;8.590;2024-01-15T00:08:12;-1.60;99.90
7494;DHT22;3788;49.902;8.590;2024-01-15T00:10:39;-1.60;99.90
7494;DHT22;3788;49.902;8.590;2024-01-15T00:13:06;-1.50;99.90
7494;DHT22;3788;49.902;8.590;2024-01-15T00:15:33;-1.50;99.90
7494;DHT22;3788;49.902;8.590;2024-01-15T00:18:00;-1.40;99.90
7494;DHT22;3788;49.902;8.590;2024-01-15T00:20:26;-1.40;99.90
7494;DHT22;3788;49.902;8.590;2024-01-15T00:22:54;-1.40;99.90
7494;DHT22;3788;49.902;8.590;2024-01-15T00:25:21;-1.40;99.90
7494;DHT22;3788;49.902;8.590;2024-01-15T00:27:48;-1.50;99.90
7494;DHT22;3788;49.902;8.590;2024-01-15T00:30:14;-1.50;99.90
7494;DHT22;3788;49.902;8.590;2024-01-15T00:32:41;-1.50;99.90
7494;DHT22;3788;49.902;8.590;2024-01-15T00:35:08;-1.60;99.90
7494;DHT22;3788;49.902;8.590;2024-01-15T00:37:35;-1.50;99.90
7494;DHT22;3788;49.902;8.590;2024-01-15T00:40:03;-1.50;99.90
7494;DHT22;3788;49.902;8.590;2024-01-15T00:42:30;-1.60;99.90
7494;DHT22;3788;49.902;8.590;2024-01-15T00:44:57;-1.60;99.90
7494;DHT22;3788;49.902;8.590;2024-01-15T00:47:24;-1.60;99.90
7494;DHT22;3788;49.902;8.590;2024-01-15T00:49:50;-1.60;99.90
7494;DHT22;3788;49.902;8.590;2024-01-15T00:52:17;-1.60;99.90
7494;DHT22;3788;49.902;8.590;2024-01-15T00:54:44;-1.60;99.90
7494;DHT22;3788;49.902;8.590;2024-01-15T00:57:11;-1.60;99.90
7494;DHT22;3788;49.902;8.590;2024-01-15T00:59:38;-1.70;99.90
7494;DHT22;3788;49.902;8.590;2024-01-15T01:02:05;-1.70;99.90
7494;DHT22;3788;49.902;8.590;2024-01-15T01:04:32;-1.60;99.90
7494;DHT22;3788;49.902;8.590;2024-01-15T01:06:59;-1.60;99.90
7494;DHT22;3788;49.902;8.590;2024-01-15T01:09:25;-1.60;99.90
7494;DHT22;3788;49.902;8.590;2024-01-15T01:11:54;-1.60;99.90
7494;DHT22;3788;49.902;8.590;2024-01-15T01:14:22;-1.70;99.90
7494;DHT22;3788;49.902;8.590;2024-01-15T01:16:49;-1.70;99.90
7494;DHT22;3788;49.902;8.590;2024-01-15T01:19:15;-1.70;99.90
7494;DHT22;3788;49.902;8.590;2024-01-15T01:21:42;-1.70;99.90
7494;DHT22;3788;49.902;8.590;2024-01-15T01:24:09;-1.70;99.90
7494;DHT22;3788;49.902;8.590;2024-01-15T01:26:35;-1.60;99.90
7494;DHT22;3788;49.902;8.590;2024-01-15T01:29:02;-1.60;99.90
7494;DHT22;3788;49.902;8.590;2024-01-15T01:31:30;-1.60;99.90
7494;DHT22;3788;49.902;8.590;2024-01-15T01:33:57;-1.60;99.90
7494;DHT22;3788;49.902;8.590;2024-01-15T01:36:23;-1.60;99.90
7494;DHT22;3788;49.902;8.590;2024-01-15T01:38:50;-1.50;99.90
7494;DHT22;3788;49.902;8.590;2024-01-15T01:41:17;-1.50;99.90
7494;DHT22;3788;49.902;8.590;2024-01-15T01:43:43;-1.50;99.90
7494;DHT22;3788;49.902;8.590;2024-01-15T01:46:11;-1.50;99.90
7494;DHT22;3788;49.902;8.590;2024-01-15T01:48:39;-1.50;99.90
7494;DHT22;3788;49.902;8.590;2024-01-15T01:51:06;-1.50;99.90
7494;DHT22;3788;49.902;8.590;2024-01-15T01:53:35;-1.50;99.90
7494;DHT22;3788;49.902;8.590;2024-01-15T01:56:04;-1.40;99.90
7494;DHT22;3788;49.902;8.590;2024-01-15T01:58:31;-1.40;99.90
7494;DHT22;3788;49.902;8.590;2024-01-15T02:00:59;-1.50;99.90
7494;DHT22;3788;49.902;8.590;2024-01-15T02:03:26;-1.40;99.90
7494;DHT22;3788;49.902;8.590;2024-01-15T02:05:55;-1.40;99.90
7494;DHT22;3788;49.902;8.590;2024-01-15T02:08:22;-1.40;99.90
7494;DHT22;3788;49.902;8.590;2024-01-15T02:10:49;-1.40;99.90
7494;DHT22;3788;49.902;8.590;2024-01-15T02:13:15;-1.40;99.90
7494;DHT22;3788;49.902;8.590;2024-01-15T02:15:42;-1.40;99.90
7494;DHT22;3788;49.902;8.590;2024-01-15T02:18:09;-1.40;99.90
7494;DHT22;3788;49.902;8.590;2024-01-15T02:20:36;-1.30;99.90
7494;DHT22;3788;49.902;8.590;2024-01-15T02:23:08;-1.30;99.90
7494;DHT22;3788;49.902;8.590;2024-01-15T02:25:37;-1.30;99.90
7494;DHT22;3788;49.902;8.590;2024-01-15T02:28:04;-1.20;99.90
7494;DHT22;3788;49.902;8.590;2024-01-15T02:30:31;-1.20;99.90
7494;DHT22;3788;49.902;8.590;2024-01-15T02:32:58;-1.20;99.90
7494;DHT22;3788;49.902;8.590;2024-01-15T02:35:25;-1.20;99.90
7494;DHT22;3788;49.902;8.590;2024-01-15T02:37:52;-1.20;99.90
7494;DHT22;3788;49.902;8.590;2024-01-15T02:40:20;-1.30;99.90
7494;DHT22;3788;49.902;8.590;2024-01-15T02:42:46;-1.20;99.90
7494;DHT22;3788;49.902;8.590;2024-01-15T02:45:13;-1.20;99.90
7494;DHT22;3788;49.902;8.590;2024-01-15T02:47:40;-1.20;99.90
7494;DHT22;3788;49.902;8.590;2024-01-15T02:50:07;-1.20;99.90
7494;DHT22;3788;49.902;8.590;2024-01-15T02:52:33;-1.20;99.90
7494;DHT22;3788;49.902;8.590;2024-01-15T02:55:00;-1.20;99.90
7494;DHT22;3788;49.902;8.590;2024-01-15T02:57:28;-1.20;99.90
7494;DHT22;3788;49.902;8.590;2024-01-15T02:59:54;-1.20;99.90
7494;DHT22;3788;49.902;8.590;2024-01-15T03:02:21;-1.20;99.90
7494;DHT22;3788;49.902;8.590;2024-01-15T03:04:48;-1.20;99.90
7494;DHT22;3788;49.902;8.590;2024-01-15T03:07:14;-1.20;99.90
7494;DHT22;3788;49.902;8.590;2024-01-15T03:09:41;-1.20;99.90
7494;DHT22;3788;49.902;8.590;2024-01-15T03:12:08;-1.20;99.90
7494;DHT22;3788;49.902;8.590;2024-01-15T03:14:36;-1.20;99.90
7494;DHT22;3788;49.902;8.590;2024-01-15T03:17:03;-1.10;99.90
7494;DHT22;3788;49.902;8.590;2024-01-15T03:19:30;-1.10;99.90
7494;DHT22;3788;49.902;8.590;2024-01-15T03:21:56;-1.10;99.90
7494;DHT22;3788;49.902;8.590;2024-01-15T03:24:23;-1.10;99.90
7494;DHT22;3788;49.902;8.590;2024-01-15T03:26:50;-1.10;99.90
7494;DHT22;3788;49.902;8.590;2024-01-15T03:29:16;-1.10;99.90
7494;DHT22;3788;49.902;8.590;2024-01-15T03:31:44;-1.10;99.90
7494;DHT22;3788;49.902;8.590;2024-01-15T03:34:11;-1.10;99.90
7494;DHT22;3788;49.902;8.590;2024-01-15T03:36:38;-1.00;99.90
7494;DHT22;3788;49.902;8.590;2024-01-15T03:39:04;-1.00;99.90
7494;DHT22;3788;49.902;8.590;2024-01-15T03:41:31;-1.00;99.90
7494;DHT22;3788;49.902;8.590;2024-01-15T03:43:57;-1.00;99.90
7494;DHT22;3788;49.902;8.590;2024-01-15T03:46:24;-1.00;99.90
7494;DHT22;3788;49.902;8.590;2024-01-15T03:48:52;-1.00;99.90
7494;DHT22;3788;49.902;8.590;2024-01-15T03:51:19;-1.00;99.90
7494;DHT22;3788;49.902;8.590;2024-01-15T03:53:46;-1.00;99.90
7494;DHT22;3788;49.902;8.590;2024-01-15T03:56:13;-1.00;99.90
7494;DHT22;3788;49.902;8.590;2024-01-15T03:58:39;-1.00;99.90
7494;DHT22;3788;49.902;8.590;2024-01-15T04:01:08;-1.00;99.90
7494;DHT22;3788;49.902;8.590;2024-01-15T04:03:35;-1.00;99.90
7494;DHT22;3788;49.902;8.590;2024-01-15T04:06:03;-1.00;99.90
7494;DHT22;3788;49.902;8.590;2024-01-15T04:08:30;-1.00;99.90
7494;DHT22;3788;49.902;8.590;2024-01-15T04:10:57;-1.00;99.90
7494;DHT22;3788;49.902;8.590;2024-01-15T04:13:23;-1.00;99.90
7494;DHT22;3788;49.902;8.590;2024-01-15T04:15:50;-1.00;99.90
7494;DHT22;3788;49.902;8.590;2024-01-15T04:18:17;-0.90;99.90
7494;DHT22;3788;49.902;8.590;2024-01-15T04:20:43;-1.00;99.90
7494;DHT22;3788;49.902;8.590;2024-01-15T04:23:11;-0.90;99.90
7494;DHT22;3788;49.902;8.590;2024-01-15T04:25:38;-0.90;99.90
7494;DHT22;3788;49.902;8.590;2024-01-15T04:28:07;-0.90;99.90
7494;DHT22;3788;49.902;8.590;2024-01-15T04:30:34;-1.00;99.90
7494;DHT22;3788;49.902;8.590;2024-01-15T04:33:01;-1.00;99.90
7494;DHT22;3788;49.902;8.590;2024-01-15T04:35:27;-1.00;99.90
7494;DHT22;3788;49.902;8.590;2024-01-15T04:37:54;-1.00;99.90
7494;DHT22;3788;49.902;8.590;2024-01-15T04:40:22;-1.00;99.90
7494;DHT22;3788;49.902;8.590;2024-01-15T04:42:49;-1.00;99.90
7494;DHT22;3788;49.902;8.590;2024-01-15T04:45:15;-1.00;99.90
7494;DHT22;3788;49.902;8.590;2024-01-15T04:47:43;-1.00;99.90
7494;DHT22;3788;49.902;8.590;2024-01-15T04:50:10;-1.00;99.90
7494;DHT22;3788;49.902;8.590;2024-01-15T04:52:37;-1.00;99.90
7494;DHT22;3788;49.902;8.590;2024-01-15T04:55:04;-1.00;99.90
7494;DHT22;3788;49.902;8.590;2024-01-15T04:57:32;-1.00;99.90
7494;DHT22;3788;49.902;8.590;2024-01-15T04:59:58;-0.90;99.90
7494;DHT22;3788;49.902;8.590;2024-01-15T05:02:25;-0.90;99.90
7494;DHT22;3788;49.902;8.590;2024-01-15T05:04:51;-0.90;99.90
7494;DHT22;3788;49.902;8.590;2024-01-15T05:07:18;-0.90;99.90
7494;DHT22;3788;49.902;8.590;2024-01-15T05:09:45;-0.90;99.90
7494;DHT22;3788;49.902;8.590;2024-01-15T05:12:11;-0.90;99.90
7494;DHT22;3788;49.902;8.590;2024-01-15T05:14:40;-0.90;99.90
7494;DHT22;3788;49.902;8.590;2024-01-15T05:17:06;-0.90;99.90
7494;DHT22;3788;49.902;8.590;2024-01-15T05:19:33;-0.80;99.90
7494;DHT22;3788;49.902;8.590;2024-01-15T05:22:00;-0.80;99.90
7494;DHT22;3788;49.902;8.590;2024-01-15T05:24:26;-0.80;99.90
7494;DHT22;3788;49.902;8.590;2024-01-15T05:26:53;-0.80;99.90
7494;DHT22;3788;49.902;8.590;2024-01-15T05:29:19;-0.80;99.90
7494;DHT22;3788;49.902;8.590;2024-01-15T05:31:47;-0.80;99.90
7494;DHT22;3788;49.902;8.590;2024-01-15T05:34:14;-0.70;99.90
7494;DHT22;3788;49.902;8.590;2024-01-15T05:36:40;-0.80;99.90
7494;DHT22;3788;49.902;8.590;2024-01-15T05:39:07;-0.80;99.90
7494;DHT22;3788;49.902;8.590;2024-01-15T05:41:34;-0.80;99.90
7494;DHT22;3788;49.902;8.590;2024-01-15T05:44:01;-0.80;99.90
7494;DHT22;3788;49.902;8.590;2024-01-15T05:46:27;-0.70;99.90
7494;DHT22;3788;49.902;8.590;2024-01-15T05:48:55;-0.70;99.90
7494;DHT22;3788;49.902;8.590;2024-01-15T05:51:22;-0.70;99.90
7494;DHT22;3788;49.902;8.590;2024-01-15T05:53:48;-0.70;99.90
7494;DHT22;3788;49.902;8.590;2024-01-15T05:56:15;-0.80;99.90
7494;DHT22;3788;49.902;8.590;2024-01-15T05:58:42;-0.80;99.90
7494;DHT22;3788;49.902;8.590;2024-01-15T06:01:09;-0.90;99.90
7494;DHT22;3788;49.902;8.590;2024-01-15T06:03:36;-0.90;99.90
7494;DHT22;3788;49.902;8.590;2024-01-15T06:06:04;-1.00;99.90
7494;DHT22;3788;49.902;8.590;2024-01-15T06:08:31;-1.00;99.90
7494;DHT22;3788;49.902;8.590;2024-01-15T06:10:57;-1.10;99.90
7494;DHT22;3788;49.902;8.590;2024-01-15T06:13:24;-1.10;99.90
7494;DHT22;3788;49.902;8.590;2024-01-15T06:15:51;-1.10;99.90
7494;DHT22;3788;49.902;8.590;2024-01-15T06:18:17;-1.10;99.90
7494;DHT22;3788;49.902;8.590;2024-01-15T06:20:44;-1.00;99.90
7494;DHT22;3788;49.902;8.590;2024-01-15T06:23:12;-1.00;99.90
7494;DHT22;3788;49.902;8.590;2024-01-15T06:25:39;-1.00;99.90
7494;DHT22;3788;49.902;8.590;2024-01-15T06:28:05;-0.90;99.90
7494;DHT22;3788;49.902;8.590;2024-01-15T06:30:32;-0.90;99.90
7494;DHT22;3788;49.902;8.590;2024-01-15T06:32:58;-0.90;99.90
7494;DHT22;3788;49.902;8.590;2024-01-15T06:35:25;-0.90;99.90
7494;DHT22;3788;49.902;8.590;2024-01-15T06:37:52;-0.90;99.90
7494;DHT22;3788;49.902;8.590;2024-01-15T06:40:19;-0.80;99.90
7494;DHT22;3788;49.902;8.590;2024-01-15T06:42:46;-0.80;99.90
7494;DHT22;3788;49.902;8.590;2024-01-15T06:45:13;-0.80;99.90
7494;DHT22;3788;49.902;8.590;2024-01-15T06:47:39;-0.70;99.90
7494;DHT22;3788;49.902;8.590;2024-01-15T06:50:07;-0.70;99.90
7494;DHT22;3788;49.902;8.590;2024-01-15T06:52:34;-0.70;99.90
7494;DHT22;3788;49.902;8.590;2024-01-15T06:55:01;-0.70;99.90
7494;DHT22;3788;49.902;8.590;2024-01-15T06:57:29;-0.70;99.90
7494;DHT22;3788;49.902;8.590;2024-01-15T06:59:55;-0.60;99.90
7494;DHT22;3788;49.902;8.590;2024-01-15T07:02:22;-0.60;99.90
7494;DHT22;3788;49.902;8.590;2024-01-15T07:04:49;-0.60;99.90
7494;DHT22;3788;49.902;8.590;2024-01-15T07:07:15;-0.50;99.90
7494;DHT22;3788;49.902;8.590;2024-01-15T07:09:42;-0.50;99.90
7494;DHT22;3788;49.902;8.590;2024-01-15T07:12:09;-0.50;99.90
7494;DHT22;3788;49.902;8.590;2024-01-15T07:14:37;-0.50;99.90
7494;DHT22;3788;49.902;8.590;2024-01-15T07:17:03;-0.40;99.90
7494;DHT22;3788;49.902;8.590;2024-01-15T07:19:30;-0.40;99.90
7494;DHT22;3788;49.902;8.590;2024-01-15T07:21:57;-0.50;99.90
7494;DHT22;3788;49.902;8.590;2024-01-15T07:24:24;-0.50;99.90
7494;DHT22;3788;49.902;8.590;2024-01-15T07:26:50;-0.50;99.90
7494;DHT22;3788;49.902;8.590;2024-01-15T07:29:17;-0.50;99.90
7494;DHT22;3788;49.902;8.590;2024-01-15T07:31:49;-0.50;99.90
7494;DHT22;3788;49.902;8.590;2024-01-15T07:34:16;-0.50;99.90
7494;DHT22;3788;49.902;8.590;2024-01-15T07:36:43;-0.50;99.90
7494;DHT22;3788;49.902;8.590;2024-01-15T07:39:10;-0.40;99.90
7494;DHT22;3788;49.902;8.590;2024-01-15T07:41:37;-0.50;99.90
7494;DHT22;3788;49.902;8.590;2024-01-15T07:44:04;-0.50;99.90
7494;DHT22;3788;49.902;8.590;2024-01-15T07:46:30;-0.50;99.90
7494;DHT22;3788;49.902;8.590;2024-01-15T07:48:58;-0.40;99.90
7494;DHT22;3788;49.902;8.590;2024-01-15T07:51:25;-0.40;99.90
7494;DHT22;3788;49.902;8.590;2024-01-15T07:53:53;-0.40;99.90
7494;DHT22;3788;49.902;8.590;2024-01-15T07:56:20;-0.40;99.90
7494;DHT22;3788;49.902;8.590;2024-01-15T07:58:47;-0.40;99.90
7494;DHT22;3788;49.902;8.590;2024-01-15T08:01:14;-0.40;99.90
7494;DHT22;3788;49.902;8.590;2024-01-15T08:03:40;-0.40;99.90
7494;DHT22;3788;49.902;8.590;2024-01-15T08:06:08;-0.40;99.90
7494;DHT22;3788;49.902;8.590;2024-01-15T08:08:36;-0.30;99.90
7494;DHT22;3788;49.902;8.590;2024-01-15T08:11:03;-0.30;99.90
7494;DHT22;3788;49.902;8.590;2024-01-15T08:13:30;-0.30;99.90
7494;DHT22;3788;49.902;8.590;2024-01-15T08:15:57;-0.30;99.90
7494;DHT22;3788;49.902;8.590;2024-01-15T08:18:23;-0.20;99.90
7494;DHT22;3788;49.902;8.590;2024-01-15T08:20:51;-0.20;99.90
7494;DHT22;3788;49.902;8.590;2024-01-15T08:23:19;-0.20;99.90
7494;DHT22;3788;49.902;8.590;2024-01-15T08:25:46;-0.10;99.90
7494;DHT22;3788;49.902;8.590;2024-01-15T08:28:13;0.00;99.90
7494;DHT22;3788;49.902;8.590;2024-01-15T08:30:40;0.00;99.90
7494;DHT22;3788;49.902;8.590;2024-01-15T08:33:06;0.00;99.90
7494;DHT22;3788;49.902;8.590;2024-01-15T08:35:33;0.00;99.90
7494;DHT22;3788;49.902;8.590;2024-01-15T08:38:00;0.10;99.90
7494;DHT22;3788;49.902;8.590;2024-01-15T08:40:29;0.10;99.90
7494;DHT22;3788;49.902;8.590;2024-01-15T08:42:56;0.10;99.90
7494;DHT22;3788;49.902;8.590;2024-01-15T08:45:22;0.20;99.90
7494;DHT22;3788;49.902;8.590;2024-01-15T08:47:49;0.30;99.90
7494;DHT22;3788;49.902;8.590;2024-01-15T08:50:16;0.40;99.90
7494;DHT22;3788;49.902;8.590;2024-01-15T08:52:42;0.40;99.90
7494;DHT22;3788;49.902;8.590;2024-01-15T08:55:09;0.50;99.90
7494;DHT22;3788;49.902;8.590;2024-01-15T08:57:37;0.60;99.90
7494;DHT22;3788;49.902;8.590;2024-01-15T09:00:04;0.60;99.90
7494;DHT22;3788;49.902;8.590;2024-01-15T09:02:34;0.70;99.90
7494;DHT22;3788;49.902;8.590;2024-01-15T09:05:01;0.70;99.90
7494;DHT22;3788;49.902;8.590;2024-01-15T09:07:29;0.70;99.90
7494;DHT22;3788;49.902;8.590;2024-01-15T09:09:56;0.70;99.90
7494;DHT22;3788;49.902;8.590;2024-01-15T09:12:24;0.70;99.90
7494;DHT22;3788;49.902;8.590;2024-01-15T09:14:52;0.70;99.90
7494;DHT22;3788;49.902;8.590;2024-01-15T09:17:20;0.70;99.90
7494;DHT22;3788;49.902;8.590;2024-01-15T09:19:47;0.70;99.90
7494;DHT22;3788;49.902;8.590;2024-01-15T09:22:14;0.70;99.90
7494;DHT22;3788;49.902;8.590;2024-01-15T09:24:43;0.80;99.90
7494;DHT22;3788;49.902;8.590;2024-01-15T09:27:10;0.80;99.90
7494;DHT22;3788;49.902;8.590;2024-01-15T09:29:37;0.90;99.90
7494;DHT22;3788;49.902;8.590;2024-01-15T09:32:06;1.00;99.90
7494;DHT22;3788;49.902;8.590;2024-01-15T09:34:33;0.90;99.90
7494;DHT22;3788;49.902;8.590;2024-01-15T09:37:00;0.90;99.90
7494;DHT22;3788;49.902;8.590;2024-01-15T09:39:28;0.90;99.90
7494;DHT22;3788;49.902;8.590;2024-01-15T09:41:56;0.90;99.90
7494;DHT22;3788;49.902;8.590;2024-01-15T09:44:23;1.00;99.90
7494;DHT22;3788;49.902;8.590;2024-01-15T09:46:52;1.00;99.90
7494;DHT22;3788;49.902;8.590;2024-01-15T09:49:20;1.10;99.90
7494;DHT22;3788;49.902;8.590;2024-01-15T09:51:47;1.10;99.90
7494;DHT22;3788;49.902;8.590;2024-01-15T09:54:14;1.20;99.90
7494;DHT22;3788;49.902;8.590;2024-01-15T09:56:44;1.20;99.90
7494;DHT22;3788;49.902;8.590;2024-01-15T09:59:13;1.10;99.90
7494;DHT22;3788;49.902;8.590;2024-01-15T10:01:41;1.10;99.90
7494;DHT22;3788;49.902;8.590;2024-01-15T10:04:08;1.10;99.90
7494;DHT22;3788;49.902;8.590;2024-01-15T10:06:37;1.10;99.90
7494;DHT22;3788;49.902;8.590;2024-01-15T10:09:05;1.10;99.90
7494;DHT22;3788;49.902;8.590;2024-01-15T10:11:33;1.10;99.90
7494;DHT22;3788;49.902;8.590;2024-01-15T10:14:00;1.10;99.90
7494;DHT22;3788;49.902;8.590;2024-01-15T10:16:27;1.10;99.90
7494;DHT22;3788;49.902;8.590;2024-01-15T10:18:54;1.10;99.90
7494;DHT22;3788;49.902;8.590;2024-01-15T10:21:21;1.10;99.90
7494;DHT22;3788;49.902;8.590;2024-01-15T10:23:49;1.10;99.90
7494;DHT22;3788;49.902;8.590;2024-01-15T10:26:16;1.00;99.90
7494;DHT22;3788;49.902;8.590;2024-01-15T10:28:42;1.10;99.90
7494;DHT22;3788;49.902;8.590;2024-01-15T10:31:09;1.10;99.90
7494;DHT22;3788;49.902;8.590;2024-01-15T10:33:36;1.10;99.90
7494;DHT22;3788;49.902;8.590;2024-01-15T10:36:09;1.10;99.90
7494;DHT22;3788;49.902;8.590;2024-01-15T10:38:36;1.10;99.90
7494;DHT22;3788;49.902;8.590;2024-01-15T10:41:04;1.10;99.90
7494;DHT22;3788;49.902;8.590;2024-01-15T10:43:31;1.10;99.90
7494;DHT22;3788;49.902;8.590;2024-01-15T10:45:58;1.20;99.90
7494;DHT22;3788;49.902;8.590;2024-01-15T10:48:25;1.20;99.90
7494;DHT22;3788;49.902;8.590;2024-01-15T10:50:54;1.20;99.90
7494;DHT22;3788;49.902;8.590;2024-01-15T10:53:23;1.20;99.90
7494;DHT22;3788;49.902;8.590;2024-01-15T10:55:50;1.30;99.90
7494;DHT22;3788;49.902;8.590;2024-01-15T10:58:20;1.30;99.90
7494;DHT22;3788;49.902;8.590;2024-01-15T11:00:47;1.40;99.90
7494;DHT22;3788;49.902;8.590;2024-01-15T11:03:14;1.40;99.90
7494;DHT22;3788;49.902;8.590;2024-01-15T11:05:42;1.50;99.90
7494;DHT22;3788;49.902;8.590;2024-01-15T11:08:10;1.50;99.90
7494;DHT22;3788;49.902;8.590;2024-01-15T11:10:42;1.60;99.90
7494;DHT22;3788;49.902;8.590;2024-01-15T11:13:14;1.70;99.90
7494;DHT22;3788;49.902;8.590;2024-01-15T11:16:02;1.80;99.90
7494;DHT22;3788;49.902;8.590;2024-01-15T11:18:30;1.80;99.90
7494;DHT22;3788;49.902;8.590;2024-01-15T11:21:21;1.90;99.90
7494;DHT22;3788;49.902;8.590;2024-01-15T11:23:49;1.90;99.90
7494;DHT22;3788;49.902;8.590;2024-01-15T11:26:34;1.90;99.90
7494;DHT22;3788;49.902;8.590;2024-01-15T11:29:02;2.10;99.90
7494;DHT22;3788;49.902;8.590;2024-01-15T11:31:58;2.20;99.90
7494;DHT22;3788;49.902;8.590;2024-01-15T11:34:49;2.30;99.90
7494;DHT22;3788;49.902;8.590;2024-01-15T11:37:16;2.40;99.90
7494;DHT22;3788;49.902;8.590;2024-01-15T11:39:43;2.40;99.50
7494;DHT22;3788;49.902;8.590;2024-01-15T11:42:11;2.50;99.50
7494;DHT22;3788;49.902;8.590;2024-01-15T11:44:38;2.60;99.20
7494;DHT22;3788;49.902;8.590;2024-01-15T11:47:07;2.60;98.60
7494;DHT22;3788;49.902;8.590;2024-01-15T11:49:59;2.70;98.50
7494;DHT22;3788;49.902;8.590;2024-01-15T11:52:32;2.70;98.40
7494;DHT22;3788;49.902;8.590;2024-01-15T11:55:01;2.70;98.20
7494;DHT22;3788;49.902;8.590;2024-01-15T11:57:37;2.70;98.40
7494;DHT22;3788;49.902;8.590;2024-01-15T12:00:08;2.70;98.60
7494;DHT22;3788;49.902;8.590;2024-01-15T12:02:36;2.80;98.40
7494;DHT22;3788;49.902;8.590;2024-01-15T12:05:04;2.90;98.50
7494;DHT22;3788;49.902;8.590;2024-01-15T12:07:31;3.00;98.50
7494;DHT22;3788;49.902;8.590;2024-01-15T12:09:58;3.00;98.40
7494;DHT22;3788;49.902;8.590;2024-01-15T12:12:29;3.00;98.00
7494;DHT22;3788;49.902;8.590;2024-01-15T12:14:58;3.00;97.70
7494;DHT22;3788;49.902;8.590;2024-01-15T12:17:27;2.90;97.70
7494;DHT22;3788;49.902;8.590;2024-01-15T12:19:56;2.80;97.90
7494;DHT22;3788;49.902;8.590;2024-01-15T12:22:23;2.80;98.10
7494;DHT22;3788;49.902;8.590;2024-01-15T12:24:49;2.70;98.30
7494;DHT22;3788;49.902;8.590;2024-01-15T12:27:16;2.70;98.40
7494;DHT22;3788;49.902;8.590;2024-01-15T12:29:43;2.70;98.50
7494;DHT22;3788;49.902;8.590;2024-01-15T12:32:11;2.70;98.70
7494;DHT22;3788;49.902;8.590;2024-01-15T12:34:38;2.70;98.70
7494;DHT22;3788;49.902;8.590;2024-01-15T12:37:06;2.70;98.80
7494;DHT22;3788;49.902;8.590;2024-01-15T12:39:34;2.70;99.20
7494;DHT22;3788;49.902;8.590;2024-01-15T12:42:01;2.70;98.90
7494;DHT22;3788;49.902;8.590;2024-01-15T12:44:28;2.70;98.90
7494;DHT22;3788;49.902;8.590;2024-01-15T12:46:55;2.70;98.90
7494;DHT22;3788;49.902;8.590;2024-01-15T12:49:23;2.70;98.90
7494;DHT22;3788;49.902;8.590;2024-01-15T12:51:52;2.80;98.80
7494;DHT22;3788;49.902;8.590;2024-01-15T12:54:20;2.70;98.70
7494;DHT22;3788;49.902;8.590;2024-01-15T12:56:47;2.70;98.80
7494;DHT22;3788;49.902;8.590;2024-01-15T12:59:14;2.80;98.70
7494;DHT22;3788;49.902;8.590;2024-01-15T13:01:40;2.80;98.60
7494;DHT22;3788;49.902;8.590;2024-01-15T13:04:08;2.80;98.70
7494;DHT22;3788;49.902;8.590;2024-01-15T13:06:35;2.80;98.90
7494;DHT22;3788;49.902;8.590;2024-01-15T13:09:02;2.80;99.00
7494;DHT22;3788;49.902;8.590;2024-01-15T13:11:32;2.80;98.80
7494;DHT22;3788;49.902;8.590;2024-01-15T13:13:59;2.80;98.80
7494;DHT22;3788;49.902;8.590;2024-01-15T13:16:25;2.80;98.70
7494;DHT22;3788;49.902;8.590;2024-01-15T13:18:54;2.80;98.70
7494;DHT22;3788;49.902;8.590;2024-01-15T13:21:21;2.90;98.80
7494;DHT22;3788;49.902;8.590;2024-01-15T13:23:48;2.90;98.90
7494;DHT22;3788;49.902;8.590;2024-01-15T13:26:15;2.90;98.80
7494;DHT22;3788;49.902;8.590;2024-01-15T13:28:44;2.90;98.70
7494;DHT22;3788;49.902;8.590;2024-01-15T13:31:11;2.90;98.40
7494;DHT22;3788;49.902;8.590;2024-01-15T13:33:38;2.90;98.20
7494;DHT22;3788;49.902;8.590;2024-01-15T13:36:05;3.00;97.80
7494;DHT22;3788;49.902;8.590;2024-01-15T13:38:35;3.00;97.60
7494;DHT22;3788;49.902;8.590;2024-01-15T13:41:03;3.00;97.40
7494;DHT22;3788;49.902;8.590;2024-01-15T13:43:31;3.00;97.40
7494;DHT22;3788;49.902;8.590;2024-01-15T13:45:59;3.00;97.50
7494;DHT22;3788;49.902;8.590;2024-01-15T13:48:26;3.00;97.20
7494;DHT22;3788;49.902;8.590;2024-01-15T13:50:53;3.00;97.10
7494;DHT22;3788;49.902;8.590;2024-01-15T13:53:20;2.90;97.00
7494;DHT22;3788;49.902;8.590;2024-01-15T13:55:46;2.90;97.10
7494;DHT22;3788;49.902;8.590;2024-01-15T13:58:13;2.90;97.30
7494;DHT22;3788;49.902;8.590;2024-01-15T14:00:40;2.80;97.20
7494;DHT22;3788;49.902;8.590;2024-01-15T14:03:08;2.80;97.30
7494;DHT22;3788;49.902;8.590;2024-01-15T14:05:34;2.80;97.30
7494;DHT22;3788;49.902;8.590;2024-01-15T14:08:01;2.80;97.20
7494;DHT22;3788;49.902;8.590;2024-01-15T14:10:28;2.80;97.30
7494;DHT22;3788;49.902;8.590;2024-01-15T14:12:55;2.80;97.40
7494;DHT22;3788;49.902;8.590;2024-01-15T14:15:22;2.80;97.50
7494;DHT22;3788;49.902;8.590;2024-01-15T14:17:48;2.90;97.30
7494;DHT22;3788;49.902;8.590;2024-01-15T14:20:16;2.90;97.20
7494;DHT22;3788;49.902;8.590;2024-01-15T14:22:43;3.00;97.20
7494;DHT22;3788;49.902;8.590;2024-01-15T14:25:10;3.00;97.20
7494;DHT22;3788;49.902;8.590;2024-01-15T14:27:36;3.00;97.10
7494;DHT22;3788;49.902;8.590;2024-01-15T14:30:04;3.00;96.90
7494;DHT22;3788;49.902;8.590;2024-01-15T14:32:33;3.00;96.80
7494;DHT22;3788;49.902;8.590;2024-01-15T14:35:00;3.00;96.80
7494;DHT22;3788;49.902;8.590;2024-01-15T14:37:27;3.00;96.80
7494;DHT22;3788;49.902;8.590;2024-01-15T14:39:53;3.00;96.80
7494;DHT22;3788;49.902;8.590;2024-01-15T14:42:20;3.10;96.80
7494;DHT22;3788;49.902;8.590;2024-01-15T14:44:47;3.10;96.50
7494;DHT22;3788;49.902;8.590;2024-01-15T14:47:13;3.10;96.10
7494;DHT22;3788;49.902;8.590;2024-01-15T14:49:40;3.10;96.10
7494;DHT22;3788;49.902;8.590;2024-01-15T14:52:06;3.10;95.90
7494;DHT22;3788;49.902;8.590;2024-01-15T14:54:34;3.10;95.70
7494;DHT22;3788;49.902;8.590;2024-01-15T14:57:01;3.10;95.70
7494;DHT22;3788;49.902;8.590;2024-01-15T14:59:28;3.10;95.60
7494;DHT22;3788;49.902;8.590;2024-01-15T15:01:55;3.10;95.60
7494;DHT22;3788;49.902;8.590;2024-01-15T15:04:22;3.10;95.50
7494;DHT22;3788;49.902;8.590;2024-01-15T15:06:49;3.10;95.50
7494;DHT22;3788;49.902;8.590;2024-01-15T15:09:16;3.10;95.70
7494;DHT22;3788;49.902;8.590;2024-01-15T15:11:44;3.10;95.60
7494;DHT22;3788;49.902;8.590;2024-01-15T15:14:10;3.00;95.60
7494;DHT22;3788;49.902;8.590;2024-01-15T15:16:37;3.10;95.70
7494;DHT22;3788;49.902;8.590;2024-01-15T15:19:03;3.00;95.70
7494;DHT22;3788;49.902;8.590;2024-01-15T15:21:30;3.00;95.60
7494;DHT22;3788;49.902;8.590;2024-01-15T15:23:57;3.10;95.50
7494;DHT22;3788;49.902;8.590;2024-01-15T15:26:25;3.10;95.40
7494;DHT22;3788;49.902;8.590;2024-01-15T15:28:53;3.10;95.20
7494;DHT22;3788;49.902;8.590;2024-01-15T15:31:20;3.20;95.50
7494;DHT22;3788;49.902;8.590;2024-01-15T15:33:46;3.20;95.00
7494;DHT22;3788;49.902;8.590;2024-01-15T15:36:13;3.20;94.90
7494;DHT22;3788;49.902;8.590;2024-01-15T15:38:40;3.20;95.00
7494;DHT22;3788;49.902;8.590;2024-01-15T15:41:06;3.10;94.90
7494;DHT22;3788;49.902;8.590;2024-01-15T15:43:33;3.10;94.90
7494;DHT22;3788;49.902;8.590;2024-01-15T15:46:01;3.00;94.90
7494;DHT22;3788;49.902;8.590;2024-01-15T15:48:31;3.00;94.80
7494;DHT22;3788;49.902;8.590;2024-01-15T15:50:57;2.90;94.80
7494;DHT22;3788;49.902;8.590;2024-01-15T15:53:25;2.90;94.90
7494;DHT22;3788;49.902;8.590;2024-01-15T15:55:52;2.80;95.00
7494;DHT22;3788;49.902;8.590;2024-01-15T15:58:18;2.80;95.10
7494;DHT22;3788;49.902;8.590;2024-01-15T16:00:45;2.70;95.00
7494;DHT22;3788;49.902;8.590;2024-01-15T16:03:13;2.70;95.00
7494;DHT22;3788;49.902;8.590;2024-01-15T16:05:40;2.70;95.00
7494;DHT22;3788;49.902;8.590;2024-01-15T16:08:06;2.60;95.00
7494;DHT22;3788;49.902;8.590;2024-01-15T16:10:33;2.50;95.10